メインページ
METAR-TAF:

METAR-TAF

空港 :

Newberry, ミシガン州, アメリカ合衆国

緯度: 46-18-40N, 経度: 085-27-26W, 海抜: 265m

現時点の気象観測

当レポートは10分前の06:16(UTC)に作成
南/南東の風 4kt
気温 4°C
湿度 60%
気圧 1016 hPa
視程: 16.1km
高度7000ftの曇り

METAR: KERY 040616Z AUTO 15004KT 10SM OVC070 04/M03 A3000 RMK AO2 T00381029

時間: 02:26 (06:26 UTC)


TAF: 見つかりません

4,000以上の空港の気象観測と天気予報(METAR報とTAF報)

利用可能な観測所は地図上に黄色い丸と赤い丸で示す。

丸の上にカーソルを重ねると観測所名を参照できる。

次にクリックすると気象観測と天気予報を参照できる。

マップの切り替え:黒色「×」印の緑ボタンをクリックして拡大、「-」印の緑ボタンをクリックして縮小、緑色の三角印をクリックして隣りの地図に切り替え


METAR-TAF: